Time;durP1;ratioP1;P1;durP2;ratioP2;P2;SDS_P1;SDS_P2;PMS_P1;PMS_P2;Temp;Humidity;BMP_temperature;BMP_pressure;BME280_temperature;BME280_humidity;BME280_pressure;Samples;Min_cycle;Max_cycle;Signal;HPM_P1;HPM_P2
2024/03/14 00:01:00;;;;;;;2.72;2.53;;;;;;;;;;6192280;23;20402;-53
2024/03/14 00:03:29;;;;;;;3.63;3.33;;;;;;;;;;6192254;23;20179;-52
2024/03/14 00:05:56;;;;;;;2.45;2.25;;;;;;;;;;6192112;23;20551;-54
2024/03/14 00:08:24;;;;;;;2.95;2.75;;;;;;;;;;6191776;23;20192;-54
2024/03/14 00:10:54;;;;;;;2.53;2.33;;;;;;;;;;6191793;23;20173;-50
2024/03/14 00:13:23;;;;;;;1.80;1.70;;;;;;;;;;6192535;23;20181;-52
2024/03/14 00:15:50;;;;;;;2.10;1.95;;;;;;;;;;6192852;23;20183;-52
2024/03/14 00:18:18;;;;;;;2.05;1.90;;;;;;;;;;6191549;23;20193;-49
2024/03/14 00:20:47;;;;;;;2.13;1.95;;;;;;;;;;6191504;23;20201;-51
2024/03/14 00:23:15;;;;;;;3.60;3.30;;;;;;;;;;6192151;23;20173;-55
2024/03/14 00:25:42;;;;;;;3.05;2.72;;;;;;;;;;6191599;23;20634;-52
2024/03/14 00:28:10;;;;;;;2.65;2.45;;;;;;;;;;6191645;23;20271;-50
2024/03/14 00:30:37;;;;;;;2.47;2.28;;;;;;;;;;6191913;23;20174;-52
2024/03/14 00:33:05;;;;;;;2.92;2.70;;;;;;;;;;6191348;23;20228;-51
2024/03/14 00:35:33;;;;;;;2.28;2.08;;;;;;;;;;6191590;23;20554;-52
2024/03/14 00:38:01;;;;;;;1.95;1.85;;;;;;;;;;6191538;23;20197;-51
2024/03/14 00:40:31;;;;;;;1.70;1.60;;;;;;;;;;6191950;23;20257;-51
2024/03/14 00:42:59;;;;;;;3.45;3.15;;;;;;;;;;6192734;23;20200;-54
2024/03/14 00:45:27;;;;;;;2.72;2.53;;;;;;;;;;6191885;23;20181;-52
2024/03/14 00:47:56;;;;;;;2.40;2.20;;;;;;;;;;6191364;23;20669;-51
2024/03/14 00:50:23;;;;;;;3.28;2.80;;;;;;;;;;6192678;23;20181;-53
2024/03/14 00:52:51;;;;;;;2.58;2.38;;;;;;;;;;6190935;23;20173;-54
2024/03/14 00:55:20;;;;;;;3.05;2.85;;;;;;;;;;6193241;23;20177;-52
2024/03/14 00:57:47;;;;;;;3.22;2.92;;;;;;;;;;6193932;23;20193;-52
2024/03/14 01:00:17;;;;;;;2.33;2.13;;;;;;;;;;6193218;23;20252;-51
2024/03/14 01:02:46;;;;;;;2.22;2.05;;;;;;;;;;6194608;23;20203;-54
2024/03/14 01:05:14;;;;;;;1.50;1.40;;;;;;;;;;6193921;23;20520;-53
2024/03/14 01:07:42;;;;;;;1.85;1.75;;;;;;;;;;6193177;23;20201;-51
2024/03/14 01:10:09;;;;;;;1.60;1.50;;;;;;;;;;6192969;23;20187;-50
2024/03/14 01:12:37;;;;;;;1.90;1.80;;;;;;;;;;6192777;23;20169;-54
2024/03/14 01:15:06;;;;;;;2.85;2.65;;;;;;;;;;6193173;23;20180;-54
2024/03/14 01:17:34;;;;;;;2.17;2.00;;;;;;;;;;6218237;23;20193;-52
2024/03/14 01:20:02;;;;;;;1.70;1.60;;;;;;;;;;6193255;23;20231;-50
2024/03/14 01:22:30;;;;;;;2.13;2.03;;;;;;;;;;6193709;23;20247;-51
2024/03/14 01:24:58;;;;;;;2.08;1.98;;;;;;;;;;6193052;23;20179;-53
2024/03/14 01:27:26;;;;;;;1.75;1.65;;;;;;;;;;6193017;23;20271;-52
2024/03/14 01:29:53;;;;;;;2.53;2.00;;;;;;;;;;6193387;23;20177;-50
2024/03/14 01:32:21;;;;;;;2.47;2.17;;;;;;;;;;6192415;23;20284;-49
2024/03/14 01:34:50;;;;;;;1.63;1.52;;;;;;;;;;6192873;23;20184;-53
2024/03/14 01:37:17;;;;;;;2.60;2.40;;;;;;;;;;6192881;23;20215;-51
2024/03/14 01:39:45;;;;;;;2.50;2.30;;;;;;;;;;6192581;23;20172;-52
2024/03/14 01:42:13;;;;;;;2.20;2.03;;;;;;;;;;6192669;23;20199;-51
2024/03/14 01:44:55;;;;;;;2.30;2.10;;;;;;;;;;6192705;23;20180;-49
2024/03/14 01:47:23;;;;;;;2.30;2.17;;;;;;;;;;6198041;23;20603;-49
2024/03/14 01:49:50;;;;;;;3.42;3.13;;;;;;;;;;6192781;23;20180;-50
2024/03/14 01:52:18;;;;;;;2.47;2.28;;;;;;;;;;6192344;23;20173;-49
2024/03/14 01:54:46;;;;;;;1.90;1.77;;;;;;;;;;6192611;23;20181;-52
2024/03/14 01:57:14;;;;;;;2.97;2.78;;;;;;;;;;6192585;23;20259;-50
2024/03/14 01:59:42;;;;;;;2.78;2.33;;;;;;;;;;6217909;23;20188;-50
2024/03/14 02:02:10;;;;;;;1.85;1.75;;;;;;;;;;6192394;23;20211;-50
2024/03/14 02:04:38;;;;;;;1.70;1.60;;;;;;;;;;6192892;23;20256;-53
2024/03/14 02:07:08;;;;;;;1.90;1.80;;;;;;;;;;6192623;23;20541;-51
2024/03/14 02:09:36;;;;;;;2.42;1.98;;;;;;;;;;6194425;23;20161;-52
2024/03/14 02:12:05;;;;;;;2.17;1.98;;;;;;;;;;6216614;23;20228;-49
2024/03/14 02:14:32;;;;;;;2.25;2.13;;;;;;;;;;6194072;23;20191;-49
2024/03/14 02:17:00;;;;;;;1.70;1.60;;;;;;;;;;6192569;23;20193;-50
2024/03/14 02:19:28;;;;;;;3.50;2.15;;;;;;;;;;6192352;23;20186;-49
2024/03/14 02:21:58;;;;;;;2.33;2.13;;;;;;;;;;6216907;23;20256;-49
2024/03/14 02:24:27;;;;;;;2.05;1.85;;;;;;;;;;6192690;23;20648;-56
2024/03/14 02:26:55;;;;;;;2.00;1.90;;;;;;;;;;6193400;23;20197;-53
2024/03/14 02:29:23;;;;;;;1.92;1.83;;;;;;;;;;6193725;23;20638;-53
2024/03/14 02:31:51;;;;;;;3.92;3.47;;;;;;;;;;6192810;23;20252;-48
2024/03/14 02:34:19;;;;;;;3.38;2.67;;;;;;;;;;6193433;23;20542;-57
2024/03/14 02:36:47;;;;;;;2.15;2.03;;;;;;;;;;6193381;23;20674;-54
2024/03/14 02:39:16;;;;;;;2.45;2.22;;;;;;;;;;6192516;23;20179;-52
2024/03/14 02:41:44;;;;;;;2.83;2.63;;;;;;;;;;6193062;23;20173;-50
2024/03/14 02:44:15;;;;;;;2.85;2.58;;;;;;;;;;6217418;23;20204;-49
2024/03/14 02:46:43;;;;;;;2.55;2.35;;;;;;;;;;6192660;23;20230;-48
2024/03/14 02:49:11;;;;;;;2.28;2.08;;;;;;;;;;6192069;23;20181;-49
2024/03/14 02:51:39;;;;;;;2.53;2.33;;;;;;;;;;6192287;23;20184;-49
2024/03/14 02:54:07;;;;;;;2.47;2.28;;;;;;;;;;6192271;23;20260;-49
2024/03/14 02:56:34;;;;;;;2.70;2.50;;;;;;;;;;6192221;23;20179;-49
2024/03/14 02:59:02;;;;;;;3.47;3.17;;;;;;;;;;6192218;23;20179;-49
2024/03/14 03:01:32;;;;;;;2.90;2.70;;;;;;;;;;6216767;23;20235;-51
2024/03/14 03:04:02;;;;;;;4.30;3.90;;;;;;;;;;6191907;23;20197;-48
2024/03/14 03:06:30;;;;;;;4.03;3.55;;;;;;;;;;6193810;23;20158;-49
2024/03/14 03:08:58;;;;;;;5.00;4.05;;;;;;;;;;6192293;23;20184;-49
2024/03/14 03:11:26;;;;;;;3.75;3.38;;;;;;;;;;6191482;23;20575;-55
2024/03/14 03:13:55;;;;;;;2.50;2.30;;;;;;;;;;6192220;23;20192;-54
2024/03/14 03:16:24;;;;;;;2.60;2.40;;;;;;;;;;6193204;23;20802;-55
2024/03/14 03:18:51;;;;;;;2.97;2.47;;;;;;;;;;6217133;23;20177;-52
2024/03/14 03:21:20;;;;;;;2.30;2.10;;;;;;;;;;6192439;23;20180;-51
2024/03/14 03:23:48;;;;;;;2.53;2.33;;;;;;;;;;6192172;23;20219;-53
2024/03/14 03:26:16;;;;;;;2.80;2.60;;;;;;;;;;6192419;23;20196;-55
2024/03/14 03:28:42;;;;;;;2.45;2.25;;;;;;;;;;6192023;23;20202;-57
2024/03/14 03:31:10;;;;;;;2.30;2.13;;;;;;;;;;6191853;23;20494;-56
2024/03/14 03:33:37;;;;;;;2.20;1.98;;;;;;;;;;6217040;23;20169;-54
2024/03/14 03:36:05;;;;;;;1.60;1.50;;;;;;;;;;6191799;23;20180;-55
2024/03/14 03:38:32;;;;;;;2.60;2.40;;;;;;;;;;6191641;23;20232;-53
2024/03/14 03:41:01;;;;;;;2.72;2.53;;;;;;;;;;6191665;23;20177;-53
2024/03/14 03:43:27;;;;;;;2.38;2.28;;;;;;;;;;6192247;23;20523;-54
2024/03/14 03:45:57;;;;;;;1.80;1.70;;;;;;;;;;6191607;23;20551;-56
2024/03/14 03:48:24;;;;;;;2.42;2.22;;;;;;;;;;6193574;23;20516;-52
2024/03/14 03:50:52;;;;;;;1.95;1.80;;;;;;;;;;6191474;23;20498;-57
2024/03/14 03:53:19;;;;;;;2.75;2.47;;;;;;;;;;6191630;23;20177;-52
2024/03/14 03:55:47;;;;;;;2.35;2.25;;;;;;;;;;6191528;23;20173;-52
2024/03/14 03:58:13;;;;;;;1.80;1.70;;;;;;;;;;6192056;23;20685;-53
2024/03/14 04:00:45;;;;;;;2.42;2.28;;;;;;;;;;6191206;23;20184;-54
2024/03/14 04:03:12;;;;;;;2.67;1.77;;;;;;;;;;6193799;23;20251;-52
2024/03/14 04:05:39;;;;;;;2.70;2.08;;;;;;;;;;6216173;23;20219;-51
2024/03/14 04:08:06;;;;;;;2.55;2.35;;;;;;;;;;6188005;23;20197;-52
2024/03/14 04:10:34;;;;;;;1.85;1.75;;;;;;;;;;6191219;23;20585;-51
2024/03/14 04:13:04;;;;;;;2.40;2.20;;;;;;;;;;6191281;23;20331;-53
2024/03/14 04:15:33;;;;;;;2.40;2.20;;;;;;;;;;6193497;23;20168;-52
2024/03/14 04:18:01;;;;;;;2.05;1.90;;;;;;;;;;6216940;23;20208;-52
2024/03/14 04:20:30;;;;;;;1.67;1.58;;;;;;;;;;6191609;23;20637;-51
2024/03/14 04:22:58;;;;;;;1.67;1.58;;;;;;;;;;6192840;23;20256;-54
2024/03/14 04:25:26;;;;;;;2.10;1.90;;;;;;;;;;6191518;23;20642;-53
2024/03/14 04:27:53;;;;;;;1.98;1.77;;;;;;;;;;6191496;23;20193;-52
2024/03/14 04:30:23;;;;;;;2.00;1.52;;;;;;;;;;6193263;23;20717;-51
2024/03/14 04:32:50;;;;;;;2.08;1.95;;;;;;;;;;6218615;23;20256;-52
2024/03/14 04:35:20;;;;;;;2.45;2.25;;;;;;;;;;6193299;23;20177;-53
2024/03/14 04:37:49;;;;;;;1.80;1.70;;;;;;;;;;6194904;23;20204;-50
2024/03/14 04:40:17;;;;;;;3.22;2.92;;;;;;;;;;6194727;23;20633;-49
2024/03/14 04:42:44;;;;;;;2.78;2.58;;;;;;;;;;6193218;23;20173;-51
2024/03/14 04:45:12;;;;;;;2.90;2.70;;;;;;;;;;6193302;23;20193;-52
2024/03/14 04:47:40;;;;;;;2.10;1.95;;;;;;;;;;6193826;23;20193;-52
2024/03/14 04:50:09;;;;;;;2.42;2.22;;;;;;;;;;6193264;23;20180;-52
2024/03/14 04:52:37;;;;;;;2.90;2.58;;;;;;;;;;6193502;23;20179;-51
2024/03/14 04:55:08;;;;;;;2.30;2.10;;;;;;;;;;6193298;23;20211;-52
2024/03/14 04:57:36;;;;;;;2.97;2.78;;;;;;;;;;6195549;23;20201;-51
2024/03/14 05:00:11;;;;;;;4.35;3.95;;;;;;;;;;6193250;23;20213;-49
2024/03/14 05:02:39;;;;;;;2.35;2.15;;;;;;;;;;6196980;23;20157;-52
2024/03/14 05:05:09;;;;;;;2.90;2.70;;;;;;;;;;6193118;23;20231;-50
2024/03/14 05:07:37;;;;;;;2.65;2.28;;;;;;;;;;6195054;23;20231;-49
2024/03/14 05:10:05;;;;;;;3.22;2.92;;;;;;;;;;6192937;23;20181;-51
2024/03/14 05:12:33;;;;;;;3.17;2.88;;;;;;;;;;6193531;23;20173;-51
2024/03/14 05:15:04;;;;;;;2.58;2.38;;;;;;;;;;6192914;23;20169;-51
2024/03/14 05:17:32;;;;;;;2.67;2.47;;;;;;;;;;6195149;23;20225;-51
2024/03/14 05:20:00;;;;;;;3.35;3.05;;;;;;;;;;6193331;23;20256;-54
2024/03/14 05:22:28;;;;;;;2.88;2.67;;;;;;;;;;6192609;23;20724;-51
2024/03/14 05:24:58;;;;;;;2.42;2.22;;;;;;;;;;6193800;23;20238;-53
2024/03/14 05:27:26;;;;;;;2.92;2.70;;;;;;;;;;6194438;23;20223;-54
2024/03/14 05:29:53;;;;;;;2.63;2.42;;;;;;;;;;6193196;23;20630;-53
2024/03/14 05:32:21;;;;;;;2.53;2.33;;;;;;;;;;6192859;23;20176;-52
2024/03/14 05:34:49;;;;;;;2.70;2.50;;;;;;;;;;6193360;23;20180;-53
2024/03/14 05:37:17;;;;;;;2.75;2.55;;;;;;;;;;6192907;23;20200;-53
2024/03/14 05:39:45;;;;;;;2.60;2.40;;;;;;;;;;6192677;23;20797;-54
2024/03/14 05:42:13;;;;;;;2.83;2.63;;;;;;;;;;6192796;23;20642;-53
2024/03/14 05:44:41;;;;;;;2.80;2.60;;;;;;;;;;6193500;23;20200;-52
2024/03/14 05:47:10;;;;;;;2.85;2.65;;;;;;;;;;6193294;23;20223;-50
2024/03/14 05:49:38;;;;;;;2.33;2.13;;;;;;;;;;6194256;23;20236;-48
2024/03/14 05:52:05;;;;;;;2.75;2.55;;;;;;;;;;6193328;23;20180;-48
2024/03/14 05:54:33;;;;;;;3.03;2.80;;;;;;;;;;6193124;23;20177;-50
2024/03/14 05:57:01;;;;;;;3.33;2.90;;;;;;;;;;6192971;23;20193;-48
2024/03/14 05:59:28;;;;;;;2.97;2.78;;;;;;;;;;6193031;23;20233;-49
2024/03/14 06:01:56;;;;;;;3.35;3.10;;;;;;;;;;6193237;23;20630;-48
2024/03/14 06:04:24;;;;;;;2.60;2.40;;;;;;;;;;6192859;23;20197;-48
2024/03/14 06:06:51;;;;;;;2.95;2.75;;;;;;;;;;6192930;23;20192;-47
2024/03/14 06:09:31;;;;;;;2.58;2.38;;;;;;;;;;6192974;23;20238;-48
2024/03/14 06:11:59;;;;;;;3.55;3.25;;;;;;;;;;6199108;23;20243;-49
2024/03/14 06:14:27;;;;;;;3.00;2.80;;;;;;;;;;6193073;23;20177;-48
2024/03/14 06:16:55;;;;;;;2.88;2.58;;;;;;;;;;6217145;23;20193;-48
2024/03/14 06:19:22;;;;;;;3.50;3.20;;;;;;;;;;6192603;23;20180;-49
2024/03/14 06:21:51;;;;;;;3.70;3.40;;;;;;;;;;6193316;23;20177;-47
2024/03/14 06:24:18;;;;;;;3.10;2.80;;;;;;;;;;6192936;23;20197;-48
2024/03/14 06:26:46;;;;;;;3.22;2.92;;;;;;;;;;6192652;23;20226;-47
2024/03/14 06:29:14;;;;;;;3.25;2.95;;;;;;;;;;6193289;23;20208;-47
2024/03/14 06:31:44;;;;;;;4.35;3.95;;;;;;;;;;6192756;23;20173;-47
2024/03/14 06:34:13;;;;;;;4.32;3.92;;;;;;;;;;6193946;23;20162;-52
2024/03/14 06:36:41;;;;;;;3.53;3.22;;;;;;;;;;6192605;23;20572;-49
2024/03/14 06:39:09;;;;;;;4.30;3.92;;;;;;;;;;6192574;23;20177;-50
2024/03/14 06:41:36;;;;;;;3.22;2.90;;;;;;;;;;6192265;23;20179;-50
2024/03/14 06:44:06;;;;;;;3.43;3.13;;;;;;;;;;6191986;23;20177;-50
2024/03/14 06:46:36;;;;;;;4.00;3.42;;;;;;;;;;6194272;23;20373;-50
2024/03/14 06:49:04;;;;;;;3.55;3.25;;;;;;;;;;6193217;23;20177;-53
2024/03/14 06:51:31;;;;;;;3.08;2.80;;;;;;;;;;6216545;23;20211;-50
2024/03/14 06:53:59;;;;;;;3.80;3.50;;;;;;;;;;6191784;23;20185;-50
2024/03/14 06:56:27;;;;;;;3.50;3.20;;;;;;;;;;6191734;23;20175;-51
2024/03/14 06:58:55;;;;;;;3.85;3.50;;;;;;;;;;6167863;23;20180;-53
2024/03/14 07:01:22;;;;;;;5.45;4.78;;;;;;;;;;6191996;23;20181;-53
2024/03/14 07:03:51;;;;;;;5.30;4.80;;;;;;;;;;6191894;23;20179;-52
2024/03/14 07:06:23;;;;;;;5.78;5.18;;;;;;;;;;6192714;23;20251;-50
2024/03/14 07:08:56;;;;;;;4.60;4.15;;;;;;;;;;6194504;23;20197;-51
2024/03/14 07:11:25;;;;;;;5.90;5.30;;;;;;;;;;6194855;23;20583;-49
2024/03/14 07:13:54;;;;;;;5.53;5.03;;;;;;;;;;6192819;23;20177;-50
2024/03/14 07:16:22;;;;;;;4.43;4.13;;;;;;;;;;6192468;23;20177;-51
2024/03/14 07:18:50;;;;;;;5.68;4.82;;;;;;;;;;6192217;23;20204;-51
2024/03/14 07:21:18;;;;;;;6.15;5.55;;;;;;;;;;6191525;23;20176;-54
2024/03/14 07:23:47;;;;;;;4.60;4.20;;;;;;;;;;6192016;23;20187;-49
2024/03/14 07:26:17;;;;;;;5.10;4.60;;;;;;;;;;6193141;23;20267;-50
2024/03/14 07:28:46;;;;;;;5.72;5.22;;;;;;;;;;6193708;23;20657;-52
2024/03/14 07:31:16;;;;;;;5.18;4.68;;;;;;;;;;6192444;23;20223;-50
2024/03/14 07:33:45;;;;;;;5.65;5.15;;;;;;;;;;6193034;23;20199;-54
2024/03/14 07:36:15;;;;;;;6.18;5.57;;;;;;;;;;6217657;23;20211;-51
2024/03/14 07:38:47;;;;;;;6.05;5.45;;;;;;;;;;6193764;23;20204;-55
2024/03/14 07:41:21;;;;;;;7.32;6.07;;;;;;;;;;6194281;23;20658;-52
2024/03/14 07:43:48;;;;;;;4.93;4.45;;;;;;;;;;6193315;23;20208;-51
2024/03/14 07:46:18;;;;;;;4.78;4.28;;;;;;;;;;6191389;23;20516;-56
2024/03/14 07:49:01;;;;;;;5.35;4.85;;;;;;;;;;6192944;23;20198;-49
2024/03/14 07:51:31;;;;;;;5.88;5.38;;;;;;;;;;6220221;23;20626;-55
2024/03/14 07:53:59;;;;;;;5.40;5.00;;;;;;;;;;6217722;23;20268;-55
2024/03/14 07:56:29;;;;;;;6.85;6.15;;;;;;;;;;6191051;23;20177;-51
2024/03/14 07:58:57;;;;;;;5.93;5.32;;;;;;;;;;6193817;23;20191;-54
2024/03/14 08:01:28;;;;;;;9.77;6.47;;;;;;;;;;6191110;23;20252;-49
2024/03/14 08:03:57;;;;;;;6.88;6.22;;;;;;;;;;6195227;23;20219;-52
2024/03/14 08:06:25;;;;;;;8.23;6.88;;;;;;;;;;6195307;23;20196;-53
2024/03/14 08:08:53;;;;;;;6.53;5.90;;;;;;;;;;6193792;23;20179;-51
2024/03/14 08:11:21;;;;;;;7.15;6.43;;;;;;;;;;6193504;23;20176;-50
2024/03/14 08:13:50;;;;;;;7.82;6.55;;;;;;;;;;6194237;23;20200;-53
2024/03/14 08:16:22;;;;;;;7.85;6.88;;;;;;;;;;6194335;23;20491;-48
2024/03/14 08:18:49;;;;;;;5.95;5.45;;;;;;;;;;6195796;23;20200;-52
2024/03/14 08:21:17;;;;;;;7.22;6.53;;;;;;;;;;6193436;23;20180;-48
2024/03/14 08:23:47;;;;;;;7.65;6.53;;;;;;;;;;6218323;23;20184;-48
2024/03/14 08:26:17;;;;;;;8.32;7.28;;;;;;;;;;6195092;23;20208;-49
2024/03/14 08:28:45;;;;;;;8.63;7.72;;;;;;;;;;6219775;23;20199;-53
2024/03/14 08:31:15;;;;;;;7.85;7.05;;;;;;;;;;6194012;23;20499;-52
2024/03/14 08:33:44;;;;;;;7.82;6.10;;;;;;;;;;6195107;23;20205;-50
2024/03/14 08:36:11;;;;;;;6.32;5.72;;;;;;;;;;6194142;23;20248;-55
2024/03/14 08:38:39;;;;;;;5.05;4.60;;;;;;;;;;6193835;23;20193;-48
2024/03/14 08:41:07;;;;;;;4.90;4.50;;;;;;;;;;6193407;23;20173;-48
2024/03/14 08:43:35;;;;;;;4.85;4.45;;;;;;;;;;6193492;23;20185;-48
2024/03/14 08:46:02;;;;;;;4.53;4.13;;;;;;;;;;6193480;23;20201;-49
2024/03/14 08:48:31;;;;;;;5.15;4.72;;;;;;;;;;6193081;23;20669;-48
2024/03/14 08:50:59;;;;;;;5.35;4.85;;;;;;;;;;6194027;23;20173;-52
2024/03/14 08:53:36;;;;;;;5.60;5.10;;;;;;;;;;6193310;23;20212;-48
2024/03/14 08:56:07;;;;;;;5.50;5.00;;;;;;;;;;6198348;23;20543;-49
2024/03/14 08:58:35;;;;;;;8.30;6.07;;;;;;;;;;6195368;23;20197;-48
2024/03/14 09:01:03;;;;;;;4.53;4.13;;;;;;;;;;6193670;23;20173;-49
2024/03/14 09:03:30;;;;;;;5.18;4.65;;;;;;;;;;6192956;23;20201;-51
2024/03/14 09:05:58;;;;;;;5.93;5.38;;;;;;;;;;6193125;23;20688;-48
2024/03/14 09:08:26;;;;;;;6.28;5.78;;;;;;;;;;6193382;23;20197;-51
2024/03/14 09:10:54;;;;;;;5.78;5.20;;;;;;;;;;6193373;23;20177;-48
2024/03/14 09:13:21;;;;;;;5.20;4.70;;;;;;;;;;6193206;23;20247;-50
2024/03/14 09:15:50;;;;;;;6.05;5.55;;;;;;;;;;6192790;23;20195;-48
2024/03/14 09:18:24;;;;;;;5.03;4.57;;;;;;;;;;6194099;23;20219;-53
2024/03/14 09:20:55;;;;;;;7.20;5.32;;;;;;;;;;6196883;23;20546;-52
2024/03/14 09:23:25;;;;;;;5.30;4.80;;;;;;;;;;6194831;23;20611;-49
2024/03/14 09:25:52;;;;;;;5.82;4.90;;;;;;;;;;6194842;23;20184;-51
2024/03/14 09:28:21;;;;;;;4.80;4.38;;;;;;;;;;6217455;23;20200;-52
2024/03/14 09:30:57;;;;;;;5.45;4.78;;;;;;;;;;6193587;23;20180;-51
2024/03/14 09:33:26;;;;;;;4.75;4.18;;;;;;;;;;6197369;23;20164;-53
2024/03/14 09:35:54;;;;;;;4.78;4.28;;;;;;;;;;6193593;23;20180;-50
2024/03/14 09:38:22;;;;;;;4.60;3.92;;;;;;;;;;6192769;23;20276;-48
2024/03/14 09:40:50;;;;;;;3.63;3.22;;;;;;;;;;6192976;23;20215;-49
2024/03/14 09:43:19;;;;;;;3.00;2.80;;;;;;;;;;6194201;23;20184;-48
2024/03/14 09:45:49;;;;;;;3.30;3.00;;;;;;;;;;6194640;23;20173;-48
2024/03/14 09:48:16;;;;;;;4.57;4.18;;;;;;;;;;6194859;23;20193;-50
2024/03/14 09:50:47;;;;;;;3.33;3.08;;;;;;;;;;6193441;23;20179;-47
2024/03/14 09:53:15;;;;;;;4.45;3.90;;;;;;;;;;6194493;23;20831;-49
2024/03/14 09:55:42;;;;;;;3.53;3.22;;;;;;;;;;6193636;23;20183;-48
2024/03/14 09:58:14;;;;;;;3.67;3.35;;;;;;;;;;6193257;23;20276;-48
2024/03/14 10:00:42;;;;;;;4.18;3.42;;;;;;;;;;6219484;23;20169;-47
2024/03/14 10:03:10;;;;;;;3.65;3.35;;;;;;;;;;6193759;23;20200;-47
2024/03/14 10:05:38;;;;;;;4.43;4.03;;;;;;;;;;6193341;23;20515;-47
2024/03/14 10:08:07;;;;;;;5.15;4.72;;;;;;;;;;6193188;23;20235;-46
2024/03/14 10:10:38;;;;;;;3.65;3.35;;;;;;;;;;6194027;23;20197;-47
2024/03/14 10:13:05;;;;;;;3.70;3.38;;;;;;;;;;6193598;23;20664;-48
2024/03/14 10:15:37;;;;;;;4.35;3.95;;;;;;;;;;6193067;23;20187;-48
2024/03/14 10:18:08;;;;;;;3.45;3.15;;;;;;;;;;6194921;23;20201;-49
2024/03/14 10:20:37;;;;;;;6.57;4.05;;;;;;;;;;6194403;23;20162;-50
2024/03/14 10:23:05;;;;;;;3.67;3.38;;;;;;;;;;6193487;23;20177;-46
2024/03/14 10:25:38;;;;;;;3.92;3.55;;;;;;;;;;6192296;23;20275;-47
2024/03/14 10:28:14;;;;;;;4.53;4.13;;;;;;;;;;6193802;23;20653;-47
2024/03/14 10:30:51;;;;;;;5.03;4.53;;;;;;;;;;6194757;23;20157;-50
2024/03/14 10:33:20;;;;;;;4.72;4.25;;;;;;;;;;6193260;23;20165;-49
2024/03/14 10:35:48;;;;;;;4.28;3.88;;;;;;;;;;6192124;23;20177;-50
2024/03/14 10:38:19;;;;;;;4.22;3.83;;;;;;;;;;6216041;23;20515;-48
2024/03/14 10:40:47;;;;;;;3.83;3.53;;;;;;;;;;6194543;23;20157;-47
2024/03/14 10:43:15;;;;;;;5.68;3.50;;;;;;;;;;6192573;23;20200;-51
2024/03/14 10:45:42;;;;;;;3.83;3.47;;;;;;;;;;6193037;23;20173;-48
2024/03/14 10:48:10;;;;;;;3.42;3.13;;;;;;;;;;6192549;23;20247;-48
2024/03/14 10:50:38;;;;;;;4.60;4.10;;;;;;;;;;6193097;23;20177;-49
2024/03/14 10:53:06;;;;;;;3.40;3.10;;;;;;;;;;6192503;23;20187;-51
2024/03/14 10:55:33;;;;;;;4.82;3.92;;;;;;;;;;6193081;23;20230;-53
2024/03/14 10:58:01;;;;;;;3.90;3.60;;;;;;;;;;6193154;23;20272;-51
2024/03/14 11:00:29;;;;;;;4.90;4.50;;;;;;;;;;6193036;23;20179;-53
2024/03/14 11:02:57;;;;;;;3.45;3.25;;;;;;;;;;6193556;23;20204;-49
2024/03/14 11:05:24;;;;;;;4.22;3.83;;;;;;;;;;6192989;23;20177;-51
2024/03/14 11:07:52;;;;;;;4.15;3.30;;;;;;;;;;6216210;23;20542;-53
2024/03/14 11:10:23;;;;;;;6.43;3.67;;;;;;;;;;6192416;23;20173;-52
2024/03/14 11:12:52;;;;;;;3.45;3.15;;;;;;;;;;6193792;23;20162;-50
2024/03/14 11:15:21;;;;;;;5.13;3.58;;;;;;;;;;6193172;23;20184;-50
2024/03/14 11:17:50;;;;;;;3.85;3.45;;;;;;;;;;6192257;23;20246;-49
2024/03/14 11:20:19;;;;;;;12.57;4.10;;;;;;;;;;6193578;23;20488;-52
2024/03/14 11:22:47;;;;;;;6.22;3.13;;;;;;;;;;6192362;23;20177;-50
2024/03/14 11:25:17;;;;;;;10.15;3.10;;;;;;;;;;6192845;22;20177;-54
2024/03/14 11:27:45;;;;;;;3.45;2.88;;;;;;;;;;6217189;23;20736;-52
2024/03/14 11:30:16;;;;;;;5.05;3.00;;;;;;;;;;6192746;23;20195;-51
2024/03/14 11:32:56;;;;;;;4.22;3.25;;;;;;;;;;6193723;23;20207;-53
2024/03/14 11:35:42;;;;;;;2.97;2.65;;;;;;;;;;6218233;23;20161;-51
2024/03/14 11:38:24;;;;;;;2.42;2.22;;;;;;;;;;6196188;23;20193;-49
2024/03/14 11:40:53;;;;;;;2.67;2.47;;;;;;;;;;6192258;23;20602;-51
2024/03/14 11:43:22;;;;;;;3.03;2.72;;;;;;;;;;6191727;23;20523;-50
2024/03/14 11:45:59;;;;;;;2.92;2.72;;;;;;;;;;6192137;23;20708;-54
2024/03/14 11:48:28;;;;;;;2.47;2.28;;;;;;;;;;6191065;23;20207;-49
2024/03/14 11:50:58;;;;;;;3.28;3.08;;;;;;;;;;6192714;23;20231;-52
2024/03/14 11:53:26;;;;;;;3.95;3.53;;;;;;;;;;6192809;23;20582;-49
2024/03/14 11:55:53;;;;;;;3.13;2.83;;;;;;;;;;6192188;23;20627;-50
2024/03/14 11:58:21;;;;;;;2.17;2.03;;;;;;;;;;6191488;23;20197;-53
2024/03/14 12:00:51;;;;;;;3.00;2.72;;;;;;;;;;6192063;23;20181;-53
2024/03/14 12:03:19;;;;;;;3.00;2.80;;;;;;;;;;6194326;23;20537;-50
2024/03/14 12:05:52;;;;;;;3.33;3.00;;;;;;;;;;6191978;23;20179;-51
2024/03/14 12:08:20;;;;;;;2.83;2.60;;;;;;;;;;6191827;23;20201;-51
2024/03/14 12:10:52;;;;;;;2.60;2.40;;;;;;;;;;6192187;23;20518;-49
2024/03/14 12:13:23;;;;;;;3.50;3.20;;;;;;;;;;6194911;23;20196;-50
2024/03/14 12:15:58;;;;;;;2.33;2.22;;;;;;;;;;6194289;23;20172;-49
2024/03/14 12:18:27;;;;;;;2.70;2.50;;;;;;;;;;6217195;23;20196;-48
2024/03/14 12:20:55;;;;;;;3.10;2.80;;;;;;;;;;6192819;23;20700;-51
2024/03/14 12:23:23;;;;;;;3.63;3.33;;;;;;;;;;6191750;23;20173;-49
2024/03/14 12:25:51;;;;;;;3.80;3.10;;;;;;;;;;6192392;23;20524;-51
2024/03/14 12:28:19;;;;;;;3.10;2.90;;;;;;;;;;6191973;23;20208;-49
2024/03/14 12:30:56;;;;;;;5.22;3.25;;;;;;;;;;6192145;23;20530;-48
2024/03/14 12:33:26;;;;;;;3.60;2.50;;;;;;;;;;6196960;23;20542;-49
2024/03/14 12:35:54;;;;;;;8.00;3.90;;;;;;;;;;6193145;23;20252;-52
2024/03/14 12:38:22;;;;;;;2.83;2.63;;;;;;;;;;6192104;23;20296;-54
2024/03/14 12:40:50;;;;;;;3.45;2.55;;;;;;;;;;6192471;23;20178;-50
2024/03/14 12:43:17;;;;;;;3.55;3.25;;;;;;;;;;6191663;23;20256;-54
2024/03/14 12:45:46;;;;;;;3.50;3.20;;;;;;;;;;6216517;23;20626;-51
2024/03/14 12:48:15;;;;;;;3.20;2.85;;;;;;;;;;6191477;23;20201;-50
2024/03/14 12:50:42;;;;;;;3.45;3.15;;;;;;;;;;6194151;23;20243;-49
2024/03/14 12:53:12;;;;;;;3.08;2.78;;;;;;;;;;6193605;23;20181;-50
2024/03/14 12:55:42;;;;;;;2.42;2.22;;;;;;;;;;6195604;23;20208;-50
2024/03/14 12:58:20;;;;;;;2.40;2.20;;;;;;;;;;6194838;23;20193;-49
2024/03/14 13:00:48;;;;;;;4.10;3.70;;;;;;;;;;6221754;23;20558;-49
2024/03/14 13:03:20;;;;;;;4.10;3.35;;;;;;;;;;6193239;23;20514;-49
2024/03/14 13:05:50;;;;;;;4.50;3.55;;;;;;;;;;6195245;23;20165;-48
2024/03/14 13:08:19;;;;;;;3.53;3.22;;;;;;;;;;6193600;23;20201;-49
2024/03/14 13:10:47;;;;;;;4.38;3.72;;;;;;;;;;6219238;23;20261;-49
2024/03/14 13:13:16;;;;;;;2.58;2.38;;;;;;;;;;6193605;23;20173;-54
2024/03/14 13:15:46;;;;;;;2.83;2.63;;;;;;;;;;6219471;23;20201;-50
2024/03/14 13:18:14;;;;;;;3.60;3.17;;;;;;;;;;6195315;23;20524;-50
2024/03/14 13:20:42;;;;;;;2.83;2.63;;;;;;;;;;6193568;23;20563;-53
2024/03/14 13:23:12;;;;;;;2.55;2.35;;;;;;;;;;6218432;23;20510;-53
2024/03/14 13:25:42;;;;;;;4.45;3.00;;;;;;;;;;6194862;23;20181;-52
2024/03/14 13:28:10;;;;;;;3.95;3.47;;;;;;;;;;6195134;23;20571;-49
2024/03/14 13:30:38;;;;;;;3.00;2.70;;;;;;;;;;6193443;23;20177;-50
2024/03/14 13:33:09;;;;;;;3.10;2.72;;;;;;;;;;6193319;23;20259;-48
2024/03/14 13:35:39;;;;;;;7.35;4.28;;;;;;;;;;6195768;23;20260;-49
2024/03/14 13:38:06;;;;;;;5.25;3.63;;;;;;;;;;6194915;23;20272;-50
2024/03/14 13:40:35;;;;;;;3.10;2.90;;;;;;;;;;6218021;23;20648;-48
2024/03/14 13:43:06;;;;;;;4.10;3.75;;;;;;;;;;6193787;23;20180;-49
2024/03/14 13:45:34;;;;;;;8.68;3.63;;;;;;;;;;6195333;23;20161;-47
2024/03/14 13:48:03;;;;;;;3.95;3.22;;;;;;;;;;6192863;23;20193;-50
2024/03/14 13:50:32;;;;;;;2.88;2.67;;;;;;;;;;6193951;23;20247;-49
2024/03/14 13:52:59;;;;;;;2.65;2.45;;;;;;;;;;6193047;23;20685;-54
2024/03/14 13:55:33;;;;;;;3.15;2.90;;;;;;;;;;6193143;23;20173;-54
2024/03/14 13:58:02;;;;;;;3.03;2.83;;;;;;;;;;6196560;23;20295;-48
2024/03/14 14:00:45;;;;;;;2.75;2.55;;;;;;;;;;6193410;23;20169;-48
2024/03/14 14:03:13;;;;;;;3.97;3.55;;;;;;;;;;6221326;23;20196;-50
2024/03/14 14:05:41;;;;;;;2.58;2.33;;;;;;;;;;6193214;23;20268;-50
2024/03/14 14:08:08;;;;;;;2.60;2.40;;;;;;;;;;6192684;23;20200;-50
2024/03/14 14:10:36;;;;;;;2.38;2.28;;;;;;;;;;6192486;23;20197;-50
2024/03/14 14:13:04;;;;;;;2.58;2.38;;;;;;;;;;6193170;23;20231;-51
2024/03/14 14:15:34;;;;;;;4.07;3.03;;;;;;;;;;6193037;23;20177;-52
2024/03/14 14:18:02;;;;;;;3.35;3.05;;;;;;;;;;6193885;23;20267;-49
2024/03/14 14:20:30;;;;;;;4.18;3.78;;;;;;;;;;6192805;23;20626;-52
2024/03/14 14:22:58;;;;;;;4.40;3.85;;;;;;;;;;6192652;23;20173;-49
2024/03/14 14:25:25;;;;;;;3.30;3.00;;;;;;;;;;6193030;23;20177;-49
2024/03/14 14:27:53;;;;;;;3.95;3.45;;;;;;;;;;6192639;23;20505;-53
2024/03/14 14:30:21;;;;;;;3.33;2.97;;;;;;;;;;6192390;23;20197;-52
2024/03/14 14:32:49;;;;;;;3.53;3.13;;;;;;;;;;6192617;23;20626;-54
2024/03/14 14:35:17;;;;;;;2.60;2.40;;;;;;;;;;6217148;23;20247;-53
2024/03/14 14:37:46;;;;;;;2.20;2.10;;;;;;;;;;6192831;23;20695;-52
2024/03/14 14:40:13;;;;;;;2.65;2.45;;;;;;;;;;6218288;23;20173;-49
2024/03/14 14:42:41;;;;;;;2.60;2.40;;;;;;;;;;6192270;23;20224;-53
2024/03/14 14:45:10;;;;;;;2.78;2.60;;;;;;;;;;6192665;23;20185;-55
2024/03/14 14:47:37;;;;;;;3.35;3.00;;;;;;;;;;6192860;23;20201;-53
2024/03/14 14:50:06;;;;;;;3.42;2.83;;;;;;;;;;6192320;23;20219;-51
2024/03/14 14:52:35;;;;;;;2.40;2.20;;;;;;;;;;6192278;23;20247;-50